createdAt,value
2022-08-05T00:00:00.477Z,101786.44
2022-08-05T00:02:07.670Z,101791.88
2022-08-05T00:04:11.679Z,101788.34
2022-08-05T00:06:29.091Z,101793.78
2022-08-05T00:08:38.547Z,101797.47
2022-08-05T00:10:42.332Z,101800.16
2022-08-05T00:12:56.529Z,101795.00
2022-08-05T00:15:54.382Z,101800.34
2022-08-05T00:17:25.734Z,101797.69
2022-08-05T00:19:33.845Z,101800.34
2022-08-05T00:21:49.584Z,101798.53
2022-08-05T00:24:05.080Z,101797.75
2022-08-05T00:26:16.447Z,101796.91
2022-08-05T00:28:21.150Z,101798.03
2022-08-05T00:30:33.245Z,101802.59
2022-08-05T00:32:37.176Z,101806.22
2022-08-05T00:35:03.547Z,101809.81
2022-08-05T00:37:14.404Z,101815.34
2022-08-05T00:39:19.958Z,101810.19
2022-08-05T00:41:51.436Z,101809.50
2022-08-05T00:43:54.975Z,101801.81
2022-08-05T00:45:58.779Z,101807.13
2022-08-05T00:48:05.485Z,101802.84
2022-08-05T00:50:10.587Z,101801.97
2022-08-05T00:52:14.667Z,101801.13
2022-08-05T00:54:22.609Z,101795.13
2022-08-05T00:56:31.856Z,101799.69
2022-08-05T00:58:35.483Z,101800.72
2022-08-05T01:00:42.134Z,101792.84
2022-08-05T01:02:46.146Z,101803.59
2022-08-05T01:04:50.351Z,101802.81
2022-08-05T01:06:55.052Z,101793.97
2022-08-05T01:08:58.749Z,101802.91
2022-08-05T01:11:08.343Z,101795.00
2022-08-05T01:13:27.338Z,101805.75
2022-08-05T01:15:36.857Z,101798.78
2022-08-05T01:17:45.227Z,101798.09
2022-08-05T01:20:11.585Z,101793.72
2022-08-05T01:22:52.868Z,101790.31
2022-08-05T01:25:20.892Z,101790.50
2022-08-05T01:28:02.172Z,101797.78
2022-08-05T01:30:17.805Z,101806.06
2022-08-05T01:32:27.657Z,101800.13
2022-08-05T01:34:39.972Z,101800.31
2022-08-05T01:36:48.353Z,101806.56
2022-08-05T01:38:52.502Z,101807.59
2022-08-05T01:40:58.939Z,101805.03
2022-08-05T01:43:04.924Z,101804.25
2022-08-05T01:45:11.133Z,101808.72
2022-08-05T01:47:19.004Z,101805.22
2022-08-05T01:49:25.973Z,101808.81
2022-08-05T01:51:52.065Z,101809.66
2022-08-05T01:53:58.824Z,101811.38
2022-08-05T01:56:04.689Z,101801.59
2022-08-05T01:58:16.736Z,101804.25
2022-08-05T02:00:20.988Z,101807.00
2022-08-05T02:02:35.369Z,101815.25
2022-08-05T02:04:42.151Z,101801.25
2022-08-05T02:06:50.069Z,101804.78
2022-08-05T02:08:57.829Z,101804.84
2022-08-05T02:11:08.603Z,101807.59
2022-08-05T02:13:20.423Z,101806.75
2022-08-05T02:15:33.363Z,101811.28
2022-08-05T02:18:32.403Z,101813.09
2022-08-05T02:20:12.889Z,101806.94
2022-08-05T02:22:25.641Z,101803.41
2022-08-05T02:24:40.638Z,101805.22
2022-08-05T02:26:54.735Z,101801.78
2022-08-05T02:29:00.461Z,101812.41
2022-08-05T02:31:14.370Z,101810.53
2022-08-05T02:33:24.498Z,101805.22
2022-08-05T02:35:50.918Z,101812.25
2022-08-05T02:38:02.566Z,101808.72
2022-08-05T02:40:09.486Z,101814.97
2022-08-05T02:42:25.923Z,101812.50
2022-08-05T02:44:36.868Z,101815.41
2022-08-05T02:46:53.124Z,101810.28
2022-08-05T02:49:02.536Z,101812.06
2022-08-05T02:51:06.853Z,101818.41
2022-08-05T02:53:18.820Z,101818.50
2022-08-05T02:55:53.711Z,101824.75
2022-08-05T02:58:09.415Z,101812.44
2022-08-05T03:00:13.988Z,101821.38
2022-08-05T03:02:21.183Z,101825.06
2022-08-05T03:04:24.996Z,101818.03
2022-08-05T03:06:57.160Z,101819.84
2022-08-05T03:08:53.415Z,101816.25
2022-08-05T03:11:53.288Z,101815.47
2022-08-05T03:13:20.899Z,101818.13
2022-08-05T03:15:32.482Z,101809.31
2022-08-05T03:17:41.760Z,101812.91
2022-08-05T03:19:45.556Z,101814.66
2022-08-05T03:21:49.824Z,101811.16
2022-08-05T03:23:54.197Z,101805.00
2022-08-05T03:26:30.393Z,101803.28
2022-08-05T03:28:21.383Z,101803.47
2022-08-05T03:30:33.347Z,101806.97
2022-08-05T03:32:40.366Z,101805.16
2022-08-05T03:34:51.008Z,101799.09
2022-08-05T03:36:54.856Z,101804.50
2022-08-05T03:38:58.458Z,101804.50
2022-08-05T03:41:08.152Z,101805.34
2022-08-05T03:43:58.868Z,101804.50
2022-08-05T03:45:57.201Z,101808.09
2022-08-05T03:47:59.903Z,101808.94
2022-08-05T03:50:03.439Z,101797.44
2022-08-05T03:52:49.444Z,101808.09
2022-08-05T03:55:50.143Z,101802.78
2022-08-05T03:57:15.955Z,101801.84
2022-08-05T03:59:26.231Z,101799.94
2022-08-05T04:01:34.142Z,101799.09
2022-08-05T04:03:41.521Z,101801.91
2022-08-05T04:06:06.806Z,101796.75
2022-08-05T04:08:29.695Z,101796.09
2022-08-05T04:10:38.353Z,101803.25
2022-08-05T04:14:44.411Z,101798.97
2022-08-05T04:16:47.882Z,101794.53
2022-08-05T04:18:54.278Z,101797.28
2022-08-05T04:20:59.213Z,101802.59
2022-08-05T04:23:02.502Z,101799.16
2022-08-05T04:25:07.709Z,101800.03
2022-08-05T04:27:15.323Z,101804.47
2022-08-05T04:29:18.722Z,101802.06
2022-08-05T04:31:23.133Z,101802.16
2022-08-05T04:34:17.510Z,101801.28
2022-08-05T04:36:11.382Z,101805.66
2022-08-05T04:38:19.095Z,101807.47
2022-08-05T04:40:22.483Z,101803.94
2022-08-05T04:42:26.255Z,101805.66
2022-08-05T04:44:30.729Z,101810.25
2022-08-05T04:46:34.137Z,101812.06
2022-08-05T04:48:37.577Z,101813.00
2022-08-05T04:51:02.848Z,101816.59
2022-08-05T04:53:07.023Z,101819.31
2022-08-05T04:55:14.886Z,101820.97
2022-08-05T04:57:18.635Z,101824.50
2022-08-05T04:59:38.516Z,101812.91
2022-08-05T05:02:07.316Z,101819.88
2022-08-05T05:04:06.384Z,101826.72
2022-08-05T05:06:39.153Z,101822.03
2022-08-05T05:08:38.144Z,101825.31
2022-08-05T05:10:56.213Z,101829.50
2022-08-05T05:12:59.955Z,101825.66
2022-08-05T05:15:10.676Z,101826.34
2022-08-05T05:17:14.384Z,101833.22
2022-08-05T05:19:19.191Z,101831.31
2022-08-05T05:21:22.832Z,101834.84
2022-08-05T05:23:39.285Z,101844.44
2022-08-05T05:25:55.500Z,101837.25
2022-08-05T05:27:59.753Z,101833.69
2022-08-05T05:30:05.190Z,101833.50
2022-08-05T05:32:12.620Z,101840.38
2022-08-05T05:34:26.672Z,101839.16
2022-08-05T05:36:30.730Z,101836.09
2022-08-05T05:38:34.903Z,101839.84
2022-08-05T05:40:38.246Z,101841.91
2022-08-05T05:42:48.405Z,101837.78
2022-08-05T05:44:52.645Z,101850.66
2022-08-05T05:47:04.574Z,101844.03
2022-08-05T05:49:22.635Z,101841.00
2022-08-05T05:51:27.795Z,101837.09
2022-08-05T05:53:31.504Z,101844.94
2022-08-05T05:56:01.363Z,101845.44
2022-08-05T05:58:08.026Z,101847.81
2022-08-05T06:00:15.308Z,101847.53
2022-08-05T06:02:32.502Z,101853.19
2022-08-05T06:04:41.055Z,101856.97
2022-08-05T06:06:47.461Z,101865.59
2022-08-05T06:08:52.326Z,101853.88
2022-08-05T06:10:56.849Z,101862.66
2022-08-05T06:13:00.228Z,101863.84
2022-08-05T06:15:08.106Z,101867.50
2022-08-05T06:17:22.476Z,101871.59
2022-08-05T06:19:34.599Z,101875.59
2022-08-05T06:21:42.909Z,101858.94
2022-08-05T06:23:53.231Z,101873.91
2022-08-05T06:26:12.661Z,101872.03
2022-08-05T06:28:21.379Z,101874.75
2022-08-05T06:30:27.317Z,101865.25
2022-08-05T06:32:31.824Z,101876.38
2022-08-05T06:34:35.093Z,101876.28
2022-08-05T06:36:57.601Z,101878.59
2022-08-05T06:39:01.671Z,101872.00
2022-08-05T06:41:07.794Z,101878.22
2022-08-05T06:43:57.263Z,101882.75
2022-08-05T06:45:44.839Z,101881.72
2022-08-05T06:48:35.996Z,101881.47
2022-08-05T06:50:22.834Z,101901.16
2022-08-05T06:52:38.094Z,101899.22
2022-08-05T06:54:41.868Z,101902.22
2022-08-05T06:56:55.163Z,101903.44
2022-08-05T06:59:11.884Z,101902.22
2022-08-05T07:01:16.774Z,101915.84
2022-08-05T07:03:27.942Z,101917.13
2022-08-05T07:05:41.099Z,101919.00
2022-08-05T07:07:45.419Z,101920.78
2022-08-05T07:09:55.435Z,101917.34
2022-08-05T07:12:01.653Z,101917.03
2022-08-05T07:14:30.335Z,101918.69
2022-08-05T07:17:56.413Z,101920.81
2022-08-05T07:19:16.142Z,101921.00
2022-08-05T07:21:29.612Z,101924.38
2022-08-05T07:23:52.981Z,101931.91
2022-08-05T07:25:56.968Z,101937.50
2022-08-05T07:28:06.057Z,101948.28
2022-08-05T07:30:27.578Z,101941.28
2022-08-05T07:32:38.187Z,101940.06
2022-08-05T07:34:42.475Z,101936.72
2022-08-05T07:36:46.230Z,101937.03
2022-08-05T07:38:55.135Z,101938.94
2022-08-05T07:41:00.321Z,101932.44
2022-08-05T07:43:20.143Z,101935.00
2022-08-05T07:45:43.361Z,101951.91
2022-08-05T07:47:49.279Z,101941.50
2022-08-05T07:49:59.446Z,101942.38
2022-08-05T07:52:02.738Z,101941.97
2022-08-05T07:54:08.478Z,101942.13
2022-08-05T07:57:00.233Z,101954.53
2022-08-05T07:58:57.749Z,101956.50
2022-08-05T08:01:00.417Z,101950.75
2022-08-05T08:03:15.847Z,101954.00
2022-08-05T08:05:19.465Z,101956.66
2022-08-05T08:07:23.902Z,101950.53
2022-08-05T08:09:29.094Z,101957.31
2022-08-05T08:11:51.293Z,101961.69
2022-08-05T08:14:00.727Z,101959.56
2022-08-05T08:16:50.084Z,101962.81
2022-08-05T08:18:30.111Z,101963.25
2022-08-05T08:21:00.051Z,101966.16
2022-08-05T08:22:59.363Z,101962.47
2022-08-05T08:25:16.207Z,101961.00
2022-08-05T08:27:20.740Z,101962.66
2022-08-05T08:30:03.908Z,101971.00
2022-08-05T08:31:48.271Z,101972.59
2022-08-05T08:33:53.519Z,101973.09
2022-08-05T08:36:29.507Z,101974.91
2022-08-05T08:38:35.947Z,101974.53
2022-08-05T08:40:41.803Z,101986.38
2022-08-05T08:42:53.214Z,101973.50
2022-08-05T08:45:23.302Z,101980.34
2022-08-05T08:48:06.147Z,101983.09
2022-08-05T08:50:22.509Z,101984.59
2022-08-05T08:52:24.807Z,101985.09
2022-08-05T08:54:29.196Z,101991.81
2022-08-05T08:56:34.057Z,101986.88
2022-08-05T08:58:44.649Z,101990.22
2022-08-05T09:00:52.515Z,101987.41
2022-08-05T09:02:56.643Z,101984.97
2022-08-05T09:05:17.224Z,101983.94
2022-08-05T09:07:29.196Z,101997.03
2022-08-05T09:09:45.387Z,101993.94
2022-08-05T09:11:57.788Z,102001.47
2022-08-05T09:14:54.867Z,101999.22
2022-08-05T09:16:31.261Z,102003.09
2022-08-05T09:18:41.315Z,102010.81
2022-08-05T09:20:51.583Z,102005.13
2022-08-05T09:23:19.057Z,102015.16
2022-08-05T09:26:03.068Z,102003.91
2022-08-05T09:28:04.536Z,102001.13
2022-08-05T09:30:16.469Z,102014.09
2022-08-05T09:32:45.857Z,102009.03
2022-08-05T09:34:51.886Z,102009.22
2022-08-05T09:36:59.448Z,102014.47
2022-08-05T09:39:18.012Z,102005.53
2022-08-05T09:41:22.451Z,102011.63
2022-08-05T09:43:40.883Z,102012.38
2022-08-05T09:46:06.465Z,102017.25
2022-08-05T09:48:21.967Z,102016.25
2022-08-05T09:50:44.638Z,102015.38
2022-08-05T09:53:00.084Z,102016.13
2022-08-05T09:55:56.586Z,102011.44
2022-08-05T09:57:43.228Z,102012.91
2022-08-05T09:59:49.606Z,102017.97
2022-08-05T10:01:57.905Z,102022.66
2022-08-05T10:04:10.272Z,102023.94
2022-08-05T10:06:15.982Z,102022.56
2022-08-05T10:08:37.518Z,102030.28
2022-08-05T10:10:54.310Z,102030.94
2022-08-05T10:13:00.458Z,102031.13
2022-08-05T10:15:20.269Z,102027.09
2022-08-05T10:17:38.119Z,102037.38
2022-08-05T10:20:03.902Z,102032.75
2022-08-05T10:22:15.784Z,102038.56
2022-08-05T10:24:35.048Z,102037.84
2022-08-05T10:26:51.539Z,102044.47
2022-08-05T10:28:56.795Z,102042.22
2022-08-05T10:32:49.648Z,102042.34
2022-08-05T10:33:29.401Z,102049.84
2022-08-05T10:35:40.621Z,102057.53
2022-08-05T10:37:49.395Z,102049.41
2022-08-05T10:40:18.462Z,102062.47
2022-08-05T10:42:33.751Z,102054.13
2022-08-05T10:44:39.584Z,102065.03
2022-08-05T10:46:50.702Z,102068.66
2022-08-05T10:49:02.760Z,102068.78
2022-08-05T10:51:21.928Z,102067.72
2022-08-05T10:53:54.740Z,102070.78
2022-08-05T10:56:14.933Z,102089.06
2022-08-05T10:58:48.044Z,102086.25
2022-08-05T11:00:54.996Z,102096.16
2022-08-05T11:03:25.259Z,102099.63
2022-08-05T11:05:31.689Z,102111.88
2022-08-05T11:08:02.545Z,102110.56
2022-08-05T11:10:09.614Z,102117.16
2022-08-05T11:12:55.242Z,102113.66
2022-08-05T11:15:19.289Z,102124.53
2022-08-05T11:17:59.229Z,102114.50
2022-08-05T11:20:10.754Z,102117.38
2022-08-05T11:22:43.019Z,102115.19
2022-08-05T11:25:01.585Z,102125.53
2022-08-05T11:27:50.160Z,102121.28
2022-08-05T11:30:02.585Z,102108.78
2022-08-05T11:32:27.813Z,102110.66
2022-08-05T11:34:39.507Z,102111.84
2022-08-05T11:36:52.803Z,102114.44
2022-08-05T11:38:57.837Z,102111.88
2022-08-05T11:41:34.852Z,102110.66
2022-08-05T11:44:00.927Z,102113.75
2022-08-05T11:46:27.214Z,102108.72
2022-08-05T11:48:16.825Z,102109.59
2022-08-05T11:50:22.672Z,102110.06
2022-08-05T11:52:29.270Z,102104.47
2022-08-05T11:54:34.921Z,102108.88
2022-08-05T11:56:50.433Z,102110.38
2022-08-05T11:58:55.735Z,102110.38
2022-08-05T12:01:10.478Z,102110.25
2022-08-05T12:03:29.481Z,102116.97
2022-08-05T12:05:39.535Z,102113.50
2022-08-05T12:08:08.521Z,102116.47
2022-08-05T12:10:13.590Z,102109.81
2022-08-05T12:12:24.100Z,102110.66
2022-08-05T12:14:39.259Z,102107.63
2022-08-05T12:16:48.809Z,102118.00
2022-08-05T12:18:53.567Z,102108.88
2022-08-05T12:20:57.332Z,102107.31
2022-08-05T12:23:10.148Z,102113.59
2022-08-05T12:25:14.261Z,102115.44
2022-08-05T12:27:25.300Z,102109.91
2022-08-05T12:29:38.008Z,102108.44
2022-08-05T12:31:53.442Z,102101.81
2022-08-05T12:33:58.571Z,102097.31
2022-08-05T12:36:04.248Z,102101.75
2022-08-05T12:38:11.603Z,102091.31
2022-08-05T12:40:20.909Z,102101.53
2022-08-05T12:42:31.982Z,102091.44
2022-08-05T12:44:35.708Z,102095.41
2022-08-05T12:46:41.246Z,102094.38
2022-08-05T12:48:58.734Z,102107.00
2022-08-05T12:52:11.190Z,102111.69
2022-08-05T12:53:41.765Z,102112.91
2022-08-05T12:55:47.852Z,102114.59
2022-08-05T12:58:48.551Z,102129.19
2022-08-05T13:02:03.686Z,102120.91
2022-08-05T13:02:55.462Z,102125.84
2022-08-05T13:05:00.834Z,102130.00
2022-08-05T13:07:10.330Z,102134.03
2022-08-05T13:09:15.668Z,102145.06
2022-08-05T13:12:02.781Z,102130.97
2022-08-05T13:14:04.666Z,102139.41
2022-08-05T13:16:16.933Z,102135.63
2022-08-05T13:18:20.871Z,102140.16
2022-08-05T13:20:35.591Z,102141.88
2022-08-05T13:22:49.326Z,102143.06
2022-08-05T13:24:58.118Z,102141.81
2022-08-05T13:27:05.382Z,102135.81
2022-08-05T13:29:19.041Z,102142.16
2022-08-05T13:32:04.330Z,102134.69
2022-08-05T13:34:21.666Z,102143.47
2022-08-05T13:36:27.882Z,102143.84
2022-08-05T13:38:36.064Z,102142.09
2022-08-05T13:40:48.119Z,102138.22
2022-08-05T13:42:55.688Z,102137.69
2022-08-05T13:44:59.633Z,102144.38
2022-08-05T13:47:08.558Z,102136.91
2022-08-05T13:49:13.032Z,102148.28
2022-08-05T13:51:17.136Z,102125.94
2022-08-05T13:53:22.259Z,102141.63
2022-08-05T13:55:41.846Z,102133.28
2022-08-05T13:57:51.951Z,102130.81
2022-08-05T13:59:59.305Z,102136.28
2022-08-05T14:02:20.096Z,102137.34
2022-08-05T14:04:41.266Z,102139.31
2022-08-05T14:06:47.569Z,102133.72
2022-08-05T14:08:52.850Z,102140.44
2022-08-05T14:10:59.840Z,102148.28
2022-08-05T14:13:20.160Z,102145.25
2022-08-05T14:16:04.312Z,102153.38
2022-08-05T14:17:51.579Z,102141.13
2022-08-05T14:20:04.741Z,102150.31
2022-08-05T14:22:12.315Z,102149.75
2022-08-05T14:24:19.526Z,102144.25
2022-08-05T14:26:36.969Z,102143.06
2022-08-05T14:28:52.220Z,102156.00
2022-08-05T14:30:56.019Z,102149.94
2022-08-05T14:32:59.805Z,102143.09
2022-08-05T14:35:03.583Z,102148.81
2022-08-05T14:37:07.449Z,102139.34
2022-08-05T14:39:23.424Z,102135.22
2022-08-05T14:41:27.234Z,102140.84
2022-08-05T14:44:02.221Z,102141.22
2022-08-05T14:45:55.151Z,102138.16
2022-08-05T14:48:05.823Z,102151.38
2022-08-05T14:50:17.487Z,102152.59
2022-08-05T14:52:50.405Z,102150.13
2022-08-05T14:54:52.866Z,102146.22
2022-08-05T14:56:57.189Z,102147.69
2022-08-05T14:59:00.828Z,102151.13
2022-08-05T15:01:06.852Z,102155.88
2022-08-05T15:03:19.941Z,102157.22
2022-08-05T15:05:30.072Z,102159.75
2022-08-05T15:08:08.612Z,102152.06
2022-08-05T15:10:16.632Z,102156.44
2022-08-05T15:12:20.172Z,102163.88
2022-08-05T15:14:35.881Z,102168.88
2022-08-05T15:16:46.799Z,102164.56
2022-08-05T15:18:50.751Z,102163.09
2022-08-05T15:20:56.312Z,102171.47
2022-08-05T15:23:05.595Z,102164.97
2022-08-05T15:25:14.337Z,102163.94
2022-08-05T15:27:20.085Z,102159.69
2022-08-05T15:29:23.690Z,102165.13
2022-08-05T15:31:34.861Z,102163.56
2022-08-05T15:34:18.892Z,102168.03
2022-08-05T15:36:03.692Z,102171.59
2022-08-05T15:38:32.443Z,102172.56
2022-08-05T15:41:01.188Z,102167.31
2022-08-05T15:43:01.653Z,102170.59
2022-08-05T15:45:16.969Z,102176.63
2022-08-05T15:47:23.708Z,102178.22
2022-08-05T15:49:53.742Z,102174.97
2022-08-05T15:52:12.756Z,102183.31
2022-08-05T15:54:15.791Z,102178.25
2022-08-05T15:56:20.225Z,102179.34
2022-08-05T15:58:25.464Z,102182.19
2022-08-05T16:00:50.486Z,102181.50
2022-08-05T16:02:54.228Z,102171.13
2022-08-05T16:04:58.251Z,102182.47
2022-08-05T16:07:02.012Z,102172.94
2022-08-05T16:09:06.046Z,102177.84
2022-08-05T16:11:13.578Z,102189.66
2022-08-05T16:13:19.346Z,102186.22
2022-08-05T16:15:32.657Z,102185.75
2022-08-05T16:17:37.858Z,102179.88
2022-08-05T16:20:04.468Z,102181.78
2022-08-05T16:22:10.665Z,102183.75
2022-08-05T16:24:41.007Z,102174.09
2022-08-05T16:26:51.631Z,102178.59
2022-08-05T16:28:55.949Z,102180.31
2022-08-05T16:31:01.184Z,102178.84
2022-08-05T16:33:05.221Z,102179.19
2022-08-05T16:35:09.728Z,102183.31
2022-08-05T16:38:02.683Z,102186.53
2022-08-05T16:40:05.867Z,102184.09
2022-08-05T16:42:13.749Z,102188.19
2022-08-05T16:44:21.002Z,102190.56
2022-08-05T16:46:30.185Z,102190.94
2022-08-05T16:48:35.825Z,102181.28
2022-08-05T16:50:39.510Z,102181.41
2022-08-05T16:52:45.930Z,102189.31
2022-08-05T16:54:49.774Z,102194.47
2022-08-05T16:56:53.568Z,102194.34
2022-08-05T16:58:57.351Z,102189.72
2022-08-05T17:01:01.115Z,102196.59
2022-08-05T17:03:19.722Z,102200.63
2022-08-05T17:05:24.359Z,102195.78
2022-08-05T17:07:39.110Z,102194.59
2022-08-05T17:09:57.539Z,102186.41
2022-08-05T17:12:02.376Z,102192.63
2022-08-05T17:14:06.837Z,102201.69
2022-08-05T17:16:33.538Z,102195.22
2022-08-05T17:18:41.059Z,102192.63
2022-08-05T17:20:45.394Z,102197.03
2022-08-05T17:22:55.517Z,102195.09
2022-08-05T17:25:00.261Z,102193.94
2022-08-05T17:27:05.071Z,102206.16
2022-08-05T17:29:10.194Z,102197.97
2022-08-05T17:31:24.430Z,102207.63
2022-08-05T17:33:38.901Z,102208.59
2022-08-05T17:36:07.927Z,102210.19
2022-08-05T17:38:14.300Z,102210.06
2022-08-05T17:40:22.573Z,102214.47
2022-08-05T17:42:31.833Z,102214.34
2022-08-05T17:44:36.238Z,102208.63
2022-08-05T17:46:39.581Z,102212.78
2022-08-05T17:48:44.890Z,102217.09
2022-08-05T17:50:53.544Z,102216.97
2022-08-05T17:52:59.190Z,102218.44
2022-08-05T17:55:03.242Z,102223.59
2022-08-05T17:57:12.201Z,102220.78
2022-08-05T17:59:20.989Z,102228.84
2022-08-05T18:01:26.595Z,102228.09
2022-08-05T18:03:59.255Z,102220.41
2022-08-05T18:05:56.218Z,102227.69
2022-08-05T18:08:06.171Z,102231.38
2022-08-05T18:10:14.143Z,102229.78
2022-08-05T18:12:25.416Z,102230.75
2022-08-05T18:14:32.091Z,102234.00
2022-08-05T18:16:47.002Z,102235.19
2022-08-05T18:18:55.394Z,102236.28
2022-08-05T18:21:03.267Z,102241.88
2022-08-05T18:23:11.185Z,102229.44
2022-08-05T18:25:17.109Z,102242.41
2022-08-05T18:27:21.379Z,102245.31
2022-08-05T18:29:40.464Z,102242.13
2022-08-05T18:31:45.089Z,102248.69
2022-08-05T18:33:49.806Z,102251.47
2022-08-05T18:36:00.123Z,102259.00
2022-08-05T18:38:10.824Z,102254.94
2022-08-05T18:40:33.821Z,102249.94
2022-08-05T18:42:39.920Z,102257.22
2022-08-05T18:44:48.956Z,102255.63
2022-08-05T18:46:59.033Z,102257.78
2022-08-05T18:49:30.458Z,102261.84
2022-08-05T18:52:04.583Z,102263.03
2022-08-05T18:54:13.425Z,102260.16
2022-08-05T18:56:17.598Z,102258.63
2022-08-05T18:58:28.924Z,102259.50
2022-08-05T19:00:34.695Z,102266.13
2022-08-05T19:02:39.147Z,102263.28
2022-08-05T19:05:01.301Z,102270.28
2022-08-05T19:07:07.434Z,102268.34
2022-08-05T19:09:13.813Z,102273.28
2022-08-05T19:11:18.353Z,102279.16
2022-08-05T19:13:36.145Z,102281.41
2022-08-05T19:15:59.959Z,102274.72
2022-08-05T19:18:09.304Z,102269.78
2022-08-05T19:20:15.458Z,102276.44
2022-08-05T19:22:27.509Z,102276.75
2022-08-05T19:24:34.276Z,102280.59
2022-08-05T19:26:44.055Z,102282.63
2022-08-05T19:28:59.676Z,102282.94
2022-08-05T19:31:05.975Z,102279.59
2022-08-05T19:33:12.888Z,102285.19
2022-08-05T19:35:21.746Z,102289.03
2022-08-05T19:37:30.039Z,102295.44
2022-08-05T19:39:51.537Z,102289.41
2022-08-05T19:42:07.309Z,102294.25
2022-08-05T19:44:14.218Z,102285.66
2022-08-05T19:46:29.713Z,102294.75
2022-08-05T19:48:34.638Z,102301.25
2022-08-05T19:50:38.351Z,102297.91
2022-08-05T19:52:42.844Z,102309.72
2022-08-05T19:54:53.315Z,102304.53
2022-08-05T19:56:57.644Z,102303.91
2022-08-05T19:59:51.617Z,102310.31
2022-08-05T20:01:28.332Z,102315.84
2022-08-05T20:03:40.822Z,102318.72
2022-08-05T20:05:51.257Z,102324.28
2022-08-05T20:07:59.100Z,102325.44
2022-08-05T20:10:04.734Z,102328.22
2022-08-05T20:12:15.394Z,102322.19
2022-08-05T20:14:26.696Z,102329.47
2022-08-05T20:16:30.832Z,102336.72
2022-08-05T20:18:35.829Z,102336.81
2022-08-05T20:20:40.380Z,102334.34
2022-08-05T20:22:44.448Z,102344.31
2022-08-05T20:24:50.753Z,102349.88
2022-08-05T20:26:59.249Z,102342.81
2022-08-05T20:29:03.267Z,102356.28
2022-08-05T20:31:07.626Z,102357.31
2022-08-05T20:33:11.697Z,102364.59
2022-08-05T20:35:17.651Z,102368.22
2022-08-05T20:38:04.909Z,102365.66
2022-08-05T20:39:51.543Z,102375.56
2022-08-05T20:41:55.950Z,102381.00
2022-08-05T20:44:19.101Z,102380.31
2022-08-05T20:46:30.429Z,102384.06
2022-08-05T20:48:37.223Z,102383.28
2022-08-05T20:50:45.166Z,102386.91
2022-08-05T20:52:49.219Z,102387.13
2022-08-05T20:55:15.976Z,102391.59
2022-08-05T20:57:41.884Z,102396.28
2022-08-05T21:00:10.293Z,102398.16
2022-08-05T21:02:09.563Z,102401.97
2022-08-05T21:04:14.319Z,102411.81
2022-08-05T21:06:27.531Z,102409.34
2022-08-05T21:08:42.421Z,102409.44
2022-08-05T21:10:48.817Z,102422.09
2022-08-05T21:12:57.603Z,102420.47
2022-08-05T21:15:03.437Z,102426.84
2022-08-05T21:17:07.691Z,102416.38
2022-08-05T21:19:11.781Z,102424.56
2022-08-05T21:21:15.763Z,102422.06
2022-08-05T21:23:19.432Z,102424.06
2022-08-05T21:25:25.910Z,102426.94
2022-08-05T21:27:38.894Z,102428.81
2022-08-05T21:29:42.730Z,102432.72
2022-08-05T21:31:53.577Z,102427.66
2022-08-05T21:33:57.124Z,102433.94
2022-08-05T21:36:03.057Z,102423.44
2022-08-05T21:38:07.614Z,102428.00
2022-08-05T21:40:13.797Z,102428.19
2022-08-05T21:42:40.939Z,102425.69
2022-08-05T21:44:43.805Z,102434.66
2022-08-05T21:46:47.476Z,102434.75
2022-08-05T21:48:56.580Z,102439.38
2022-08-05T21:51:00.713Z,102443.19
2022-08-05T21:53:16.153Z,102447.81
2022-08-05T21:56:01.175Z,102447.16
2022-08-05T21:57:45.326Z,102449.19
2022-08-05T22:00:06.469Z,102442.31
2022-08-05T22:02:16.577Z,102447.81
2022-08-05T22:04:25.415Z,102437.31
2022-08-05T22:06:35.569Z,102438.34
2022-08-05T22:08:43.268Z,102449.09
2022-08-05T22:10:50.981Z,102448.34
2022-08-05T22:12:54.554Z,102447.63
2022-08-05T22:15:00.792Z,102446.97
2022-08-05T22:17:06.752Z,102449.03
2022-08-05T22:19:57.222Z,102452.81
2022-08-05T22:21:35.600Z,102452.19
2022-08-05T22:24:01.835Z,102456.69
2022-08-05T22:26:24.156Z,102453.31
2022-08-05T22:28:28.102Z,102463.28
2022-08-05T22:30:35.130Z,102460.88
2022-08-05T22:32:39.525Z,102463.72
2022-08-05T22:34:45.723Z,102462.91
2022-08-05T22:36:51.765Z,102465.75
2022-08-05T22:38:55.807Z,102471.16
2022-08-05T22:41:00.412Z,102469.53
2022-08-05T22:43:13.842Z,102470.56
2022-08-05T22:45:17.612Z,102472.50
2022-08-05T22:47:30.185Z,102469.16
2022-08-05T22:50:20.258Z,102467.59
2022-08-05T22:52:06.444Z,102464.22
2022-08-05T22:54:12.544Z,102461.72
2022-08-05T22:56:16.306Z,102460.09
2022-08-05T22:58:28.349Z,102457.50
2022-08-05T23:00:32.806Z,102455.94
2022-08-05T23:02:40.070Z,102466.69
2022-08-05T23:04:51.632Z,102466.78
2022-08-05T23:06:56.208Z,102459.72
2022-08-05T23:09:24.614Z,102465.03
2022-08-05T23:11:25.257Z,102466.91
2022-08-05T23:13:28.952Z,102467.09
2022-08-05T23:15:34.892Z,102467.16
2022-08-05T23:18:00.997Z,102471.78
2022-08-05T23:20:02.782Z,102479.09
2022-08-05T23:22:06.186Z,102476.56
2022-08-05T23:24:12.678Z,102481.97
2022-08-05T23:26:16.170Z,102480.41
2022-08-05T23:28:21.920Z,102485.81
2022-08-05T23:30:27.154Z,102484.16
2022-08-05T23:32:32.887Z,102487.75
2022-08-05T23:34:37.925Z,102492.31
2022-08-05T23:36:44.504Z,102493.31
2022-08-05T23:38:48.435Z,102498.63
2022-08-05T23:40:54.854Z,102502.31
2022-08-05T23:42:58.450Z,102504.34
2022-08-05T23:45:02.437Z,102504.41
2022-08-05T23:47:14.971Z,102506.31
2022-08-05T23:49:23.796Z,102505.50
2022-08-05T23:51:55.398Z,102516.31
2022-08-05T23:54:00.908Z,102520.91
2022-08-05T23:56:07.921Z,102529.16
2022-08-05T23:58:32.168Z,102530.22
